Time;durP1;ratioP1;P1;durP2;ratioP2;P2;SDS_P1;SDS_P2;PMS_P1;PMS_P2;Temp;Humidity;BMP_temperature;BMP_pressure;BME280_temperature;BME280_humidity;BME280_pressure;Samples;Min_cycle;Max_cycle;Signal;HPM_P1;HPM_P2
2023/01/11 00:02:17;;;;;;;8.60;3.85;;;;;;;3.00;100.00;98769.50;4452765;32;20151;-71
2023/01/11 00:04:46;;;;;;;5.72;3.60;;;;;;;2.98;100.00;98758.41;4453005;32;20451;-71
2023/01/11 00:07:13;;;;;;;11.07;4.32;;;;;;;2.98;100.00;98763.59;4452680;32;20119;-71
2023/01/11 00:09:40;;;;;;;6.78;3.40;;;;;;;2.96;100.00;98768.00;4452838;32;20474;-70
2023/01/11 00:12:11;;;;;;;7.82;3.90;;;;;;;2.97;100.00;98759.31;4452825;32;20127;-71
2023/01/11 00:14:38;;;;;;;9.20;4.62;;;;;;;3.00;100.00;98772.09;4452808;32;20085;-70
2023/01/11 00:17:05;;;;;;;7.03;4.03;;;;;;;2.94;100.00;98774.22;4453690;32;20104;-71
2023/01/11 00:19:33;;;;;;;16.33;5.25;;;;;;;2.92;100.00;98766.53;4454714;32;20184;-70
2023/01/11 00:22:00;;;;;;;8.82;4.15;;;;;;;2.95;100.00;98771.53;4454575;32;20112;-71
2023/01/11 00:24:27;;;;;;;8.43;4.20;;;;;;;2.92;100.00;98763.94;4454767;32;20120;-71
2023/01/11 00:26:54;;;;;;;8.60;4.62;;;;;;;2.88;100.00;98790.91;4454644;32;20112;-71
2023/01/11 00:29:21;;;;;;;6.55;3.92;;;;;;;2.83;100.00;98774.81;4454669;32;20100;-71
2023/01/11 00:31:49;;;;;;;8.50;4.57;;;;;;;2.83;100.00;98773.06;4454553;32;20165;-71
2023/01/11 00:34:16;;;;;;;5.78;3.62;;;;;;;2.77;100.00;98777.75;4454727;32;20225;-71
2023/01/11 00:36:43;;;;;;;9.82;4.18;;;;;;;2.81;100.00;98774.91;4440592;32;20108;-71
2023/01/11 00:39:10;;;;;;;10.48;4.78;;;;;;;2.79;100.00;98771.56;4454716;32;20160;-70
2023/01/11 00:49:59;;;;;;;11.02;5.78;;;;;;;2.70;100.00;98782.44;4454647;32;20100;-71
2023/01/11 00:52:26;;;;;;;9.18;4.70;;;;;;;2.76;100.00;98789.03;4454471;32;20105;-71
2023/01/11 00:54:54;;;;;;;9.07;4.07;;;;;;;2.80;100.00;98798.25;4454735;32;20167;-71
2023/01/11 00:57:21;;;;;;;9.55;4.32;;;;;;;2.72;100.00;98803.87;4454551;32;20123;-71
2023/01/11 00:59:48;;;;;;;10.40;5.40;;;;;;;2.75;100.00;98795.94;4454850;32;20097;-70
2023/01/11 01:02:15;;;;;;;16.23;6.22;;;;;;;2.79;100.00;98806.97;4454470;32;20128;-71
2023/01/11 01:04:42;;;;;;;7.85;4.00;;;;;;;2.74;100.00;98807.22;4454628;32;20116;-71
2023/01/11 01:07:12;;;;;;;9.02;4.28;;;;;;;2.78;100.00;98800.12;4454561;32;20123;-71
2023/01/11 01:09:40;;;;;;;8.85;4.07;;;;;;;2.74;100.00;98806.38;4454576;32;20247;-71
2023/01/11 01:12:08;;;;;;;8.63;4.18;;;;;;;2.71;100.00;98819.47;4454853;32;20109;-71
2023/01/11 01:14:35;;;;;;;6.62;3.90;;;;;;;2.74;100.00;98799.47;4454387;32;20119;-71
2023/01/11 01:17:07;;;;;;;8.65;5.12;;;;;;;2.78;100.00;98826.81;4454424;32;20165;-71
2023/01/11 01:19:36;;;;;;;7.28;4.47;;;;;;;2.66;100.00;98792.16;4454355;32;20814;-71
2023/01/11 01:22:03;;;;;;;9.43;4.68;;;;;;;2.70;100.00;98786.78;4454317;32;20445;-71
2023/01/11 01:24:31;;;;;;;11.27;3.75;;;;;;;2.71;100.00;98784.13;4454209;32;20090;-71
2023/01/11 01:26:58;;;;;;;6.47;3.67;;;;;;;2.76;100.00;98783.84;4454212;32;20092;-71
2023/01/11 01:29:26;;;;;;;10.63;5.25;;;;;;;2.76;100.00;98789.84;4439029;32;20561;-71
2023/01/11 01:31:53;;;;;;;8.13;4.30;;;;;;;2.72;100.00;98780.59;4454216;32;20098;-71
2023/01/11 01:34:20;;;;;;;7.97;3.47;;;;;;;2.72;100.00;98784.94;4454404;32;20162;-71
2023/01/11 01:36:47;;;;;;;7.15;3.70;;;;;;;2.71;100.00;98791.03;4454366;32;20156;-71
2023/01/11 01:39:15;;;;;;;9.55;4.90;;;;;;;2.72;100.00;98780.59;4454174;32;20453;-71
2023/01/11 01:41:42;;;;;;;8.57;4.45;;;;;;;2.73;100.00;98778.84;4454359;32;20093;-71
2023/01/11 01:44:47;;;;;;;9.45;5.28;;;;;;;2.72;100.00;98779.78;4454134;32;20512;-71
2023/01/11 01:47:15;;;;;;;10.70;4.40;;;;;;;2.72;100.00;98779.78;4454185;32;20123;-71
2023/01/11 01:49:42;;;;;;;6.62;3.53;;;;;;;2.70;100.00;98792.78;4440066;32;20160;-71
2023/01/11 01:52:10;;;;;;;8.18;4.60;;;;;;;2.75;100.00;98800.28;4440196;32;20081;-71
2023/01/11 01:54:42;;;;;;;8.50;4.32;;;;;;;2.65;100.00;98785.28;4440403;32;20157;-71
2023/01/11 01:57:20;;;;;;;14.25;4.87;;;;;;;2.69;100.00;98811.00;4454081;32;20112;-71
2023/01/11 01:59:50;;;;;;;15.63;6.28;;;;;;;2.74;100.00;98801.19;4454078;32;20403;-71
2023/01/11 02:02:21;;;;;;;12.20;5.60;;;;;;;2.65;100.00;98800.81;4440091;32;20127;-71
2023/01/11 02:04:48;;;;;;;7.05;4.10;;;;;;;2.68;100.00;98812.75;4440420;32;20124;-71
2023/01/11 02:07:24;;;;;;;12.65;6.00;;;;;;;2.71;100.00;98794.47;4440190;32;20131;-70
2023/01/11 02:09:58;;;;;;;7.20;3.90;;;;;;;2.76;100.00;98812.31;4453933;32;20581;-71
2023/01/11 02:12:27;;;;;;;10.73;4.35;;;;;;;2.72;100.00;98821.16;4440168;32;20129;-71
2023/01/11 02:14:59;;;;;;;10.32;6.12;;;;;;;2.70;100.00;98800.56;4453984;32;20529;-71
2023/01/11 02:17:26;;;;;;;9.32;4.95;;;;;;;2.64;100.00;98798.31;4439809;32;20166;-71
2023/01/11 02:20:08;;;;;;;13.77;5.10;;;;;;;2.61;100.00;98814.81;4453947;32;20092;-71
2023/01/11 02:22:58;;;;;;;10.68;5.85;;;;;;;2.67;100.00;98803.31;4453840;32;20115;-71
2023/01/11 02:25:44;;;;;;;8.52;4.68;;;;;;;2.63;100.00;98810.41;4453854;32;20089;-71
2023/01/11 02:28:18;;;;;;;8.93;4.85;;;;;;;2.66;100.00;98817.16;4453895;32;20166;-71
2023/01/11 02:31:16;;;;;;;9.57;5.70;;;;;;;2.67;100.00;98814.47;4453752;32;20119;-71
2023/01/11 02:33:56;;;;;;;10.48;5.87;;;;;;;2.63;100.00;98801.81;4453895;32;20853;-71
2023/01/11 02:36:52;;;;;;;9.65;4.72;;;;;;;2.67;100.00;98805.91;4453943;32;20180;-71
2023/01/11 02:39:58;;;;;;;7.18;3.80;;;;;;;2.69;100.00;98816.16;4453347;32;20158;-71
2023/01/11 02:45:37;;;;;;;6.75;4.45;;;;;;;2.63;100.00;98836.28;4453900;32;19984;-71
2023/01/11 02:48:10;;;;;;;7.85;5.05;;;;;;;2.70;100.00;98821.25;4453864;32;20564;-70
2023/01/11 02:50:43;;;;;;;9.40;4.57;;;;;;;2.69;100.00;98816.16;4439872;32;20149;-71
2023/01/11 02:53:28;;;;;;;7.35;4.25;;;;;;;2.73;100.00;98859.88;4439664;32;20095;-71
2023/01/11 02:55:58;;;;;;;8.55;4.20;;;;;;;2.68;100.00;98805.00;4440113;32;20143;-71
2023/01/11 02:58:27;;;;;;;10.05;4.55;;;;;;;2.60;100.00;98836.44;4439578;32;20101;-71
2023/01/11 03:00:57;;;;;;;12.77;5.25;;;;;;;2.64;100.00;98847.44;4439366;32;20105;-71
2023/01/11 03:03:28;;;;;;;12.02;5.75;;;;;;;2.66;100.00;98837.84;4439951;32;20162;-71
2023/01/11 03:06:04;;;;;;;10.02;5.47;;;;;;;2.69;100.00;98826.50;4453712;32;20140;-71
2023/01/11 03:08:34;;;;;;;8.15;5.30;;;;;;;2.61;100.00;98832.09;4439744;32;20124;-71
2023/01/11 03:11:08;;;;;;;13.10;5.70;;;;;;;2.51;100.00;98838.69;4453594;32;20109;-71
2023/01/11 03:14:23;;;;;;;11.50;5.35;;;;;;;2.54;100.00;98821.25;4453962;32;20093;-71
2023/01/11 03:17:02;;;;;;;16.55;5.10;;;;;;;2.56;100.00;98829.78;4453357;32;20097;-71
2023/01/11 03:19:41;;;;;;;8.27;4.40;;;;;;;2.46;100.00;98842.37;4453542;32;20104;-71
2023/01/11 03:22:28;;;;;;;10.70;4.65;;;;;;;2.60;100.00;98836.44;4453446;32;20089;-71
2023/01/11 03:25:29;;;;;;;12.73;5.85;;;;;;;2.50;100.00;98840.47;4439483;32;20196;-71
2023/01/11 03:28:01;;;;;;;12.32;5.12;;;;;;;2.54;100.00;98844.53;4450330;32;20160;-71
2023/01/11 03:30:34;;;;;;;8.10;4.43;;;;;;;2.40;100.00;98842.69;4439341;32;20160;-71
2023/01/11 03:33:04;;;;;;;10.57;5.45;;;;;;;2.40;100.00;98847.06;4439474;32;20123;-71
2023/01/11 03:35:42;;;;;;;7.50;4.43;;;;;;;2.48;100.00;98844.88;4453189;32;20113;-71
2023/01/11 03:38:19;;;;;;;16.33;5.55;;;;;;;2.39;100.00;98866.06;4439478;32;20137;-71
2023/01/11 03:40:54;;;;;;;7.62;4.47;;;;;;;2.42;100.00;98856.41;4439418;32;20098;-71
2023/01/11 03:43:23;;;;;;;11.93;4.93;;;;;;;2.41;100.00;98848.72;4439435;32;20097;-70
2023/01/11 03:45:57;;;;;;;8.10;4.45;;;;;;;2.43;100.00;98870.16;4439322;32;20085;-71
2023/01/11 03:48:43;;;;;;;8.77;4.25;;;;;;;2.40;100.00;98878.06;4453374;32;20141;-71
2023/01/11 03:51:13;;;;;;;21.40;5.30;;;;;;;2.45;100.00;98883.81;4453277;32;20089;-71
2023/01/11 03:53:43;;;;;;;13.35;5.25;;;;;;;2.43;100.00;98891.66;4441217;32;20100;-71
2023/01/11 03:56:11;;;;;;;11.85;5.12;;;;;;;2.40;100.00;98893.59;4441064;32;20093;-71
2023/01/11 03:58:39;;;;;;;10.70;4.93;;;;;;;2.39;100.00;98897.94;4441045;32;20393;-71
2023/01/11 04:01:06;;;;;;;10.90;5.03;;;;;;;2.37;100.00;98897.16;4454750;32;20158;-71
2023/01/11 04:03:34;;;;;;;10.43;5.70;;;;;;;2.43;100.00;98903.75;4441040;32;20116;-71
2023/01/11 04:06:01;;;;;;;7.85;4.57;;;;;;;2.33;100.00;98894.81;4455003;32;20458;-71
2023/01/11 04:08:30;;;;;;;10.63;4.90;;;;;;;2.40;100.00;98883.25;4454971;32;20093;-71
2023/01/11 04:10:57;;;;;;;7.03;4.45;;;;;;;2.30;100.00;98875.13;4454828;32;20492;-71
2023/01/11 04:13:24;;;;;;;11.38;5.75;;;;;;;2.23;100.00;98856.53;4454862;32;20154;-71
2023/01/11 04:15:53;;;;;;;13.15;4.93;;;;;;;2.15;100.00;98845.81;4454867;32;20089;-71
2023/01/11 04:18:20;;;;;;;12.90;5.28;;;;;;;2.15;100.00;98858.72;4454784;32;20101;-71
2023/01/11 04:20:47;;;;;;;12.07;6.12;;;;;;;2.20;100.00;98859.28;4454757;32;20169;-71
2023/01/11 04:23:14;;;;;;;13.35;6.80;;;;;;;2.20;100.00;98867.06;4439357;32;20374;-71
2023/01/11 04:25:41;;;;;;;10.35;5.75;;;;;;;2.17;100.00;98862.03;4439654;32;20109;-71
2023/01/11 04:28:08;;;;;;;12.20;4.70;;;;;;;2.11;100.00;98868.38;4439094;32;20102;-71
2023/01/11 04:30:36;;;;;;;11.12;5.75;;;;;;;2.12;100.00;98880.37;4439439;32;20105;-71
2023/01/11 04:33:03;;;;;;;10.82;4.32;;;;;;;2.12;100.00;98882.16;4439146;32;20111;-71
2023/01/11 04:35:30;;;;;;;10.35;6.00;;;;;;;2.09;100.00;98871.94;4439283;32;20461;-70
2023/01/11 04:37:57;;;;;;;7.80;4.82;;;;;;;2.10;100.00;98879.59;4439338;32;20101;-71
2023/01/11 04:40:24;;;;;;;14.90;5.93;;;;;;;2.09;100.00;98887.44;4439097;32;20463;-71
2023/01/11 04:42:52;;;;;;;10.55;5.10;;;;;;;2.06;100.00;98893.63;4439248;32;20489;-71
2023/01/11 04:45:19;;;;;;;12.93;5.68;;;;;;;2.16;100.00;98898.31;4439227;32;20112;-71
2023/01/11 04:47:53;;;;;;;13.27;5.30;;;;;;;2.12;100.00;98889.91;4439176;32;20224;-71
2023/01/11 04:50:20;;;;;;;11.80;5.82;;;;;;;2.04;100.00;98898.03;4439199;32;20435;-71
2023/01/11 04:52:47;;;;;;;9.80;5.03;;;;;;;1.95;100.00;98898.50;4439006;32;20455;-71
2023/01/11 04:55:14;;;;;;;14.45;6.30;;;;;;;1.98;100.00;98887.19;4439134;32;20109;-71
2023/01/11 04:57:45;;;;;;;10.73;4.93;;;;;;;2.08;100.00;98883.22;4438924;32;20163;-71
2023/01/11 05:00:14;;;;;;;12.00;5.00;;;;;;;2.00;100.00;98880.19;4439156;32;20163;-71
2023/01/11 05:02:42;;;;;;;10.27;4.70;;;;;;;2.06;100.00;98887.59;4438679;32;20109;-71
2023/01/11 05:05:09;;;;;;;13.02;4.90;;;;;;;2.06;100.00;98891.03;4439002;32;20088;-70
2023/01/11 05:07:38;;;;;;;8.32;4.87;;;;;;;2.11;100.00;98873.53;4438986;32;20110;-71
2023/01/11 05:10:05;;;;;;;14.68;5.28;;;;;;;2.01;100.00;98874.94;4447843;32;20109;-71
2023/01/11 05:12:32;;;;;;;8.50;4.55;;;;;;;2.05;100.00;98868.69;4454407;32;20093;-71
2023/01/11 05:15:00;;;;;;;13.27;5.37;;;;;;;2.07;100.00;98853.94;4454660;32;20149;-71
2023/01/11 05:17:27;;;;;;;11.52;5.70;;;;;;;2.01;100.00;98850.84;4454309;32;20147;-71
2023/01/11 05:19:54;;;;;;;11.63;5.72;;;;;;;2.04;100.00;98887.69;4454523;32;20108;-71
2023/01/11 05:22:21;;;;;;;11.07;5.25;;;;;;;2.12;100.00;98898.47;4454063;32;20126;-72
2023/01/11 05:24:48;;;;;;;12.70;4.30;;;;;;;2.12;100.00;98901.06;4454309;32;20097;-72
2023/01/11 05:27:15;;;;;;;12.98;5.60;;;;;;;2.18;100.00;98899.91;4454240;32;20089;-72
2023/01/11 05:29:43;;;;;;;10.63;5.03;;;;;;;2.16;100.00;98881.03;4454563;32;20121;-73
2023/01/11 05:32:11;;;;;;;12.07;5.37;;;;;;;2.17;100.00;98900.81;4454150;32;20093;-73
2023/01/11 05:34:38;;;;;;;10.10;4.95;;;;;;;2.16;100.00;98895.72;4454189;32;20089;-73
2023/01/11 05:37:05;;;;;;;12.88;5.00;;;;;;;2.20;100.00;98894.66;4453585;32;20101;-72
2023/01/11 05:39:32;;;;;;;9.43;4.28;;;;;;;2.19;100.00;98904.13;4453156;32;20526;-73
2023/01/11 05:41:59;;;;;;;11.82;4.72;;;;;;;2.16;100.00;98906.88;4452453;32;20093;-72
2023/01/11 05:47:12;;;;;;;8.43;3.87;;;;;;;2.01;100.00;98898.19;4454105;32;20483;-73
2023/01/11 05:49:40;;;;;;;8.20;4.28;;;;;;;2.08;100.00;98903.87;4453245;32;20093;-73
2023/01/11 05:52:07;;;;;;;8.00;4.05;;;;;;;2.10;100.00;98902.87;4453288;32;20097;-73
2023/01/11 05:54:34;;;;;;;12.13;5.40;;;;;;;2.05;100.00;98898.88;4453695;32;20521;-73
2023/01/11 05:57:01;;;;;;;9.80;4.35;;;;;;;1.99;100.00;98896.63;4450959;32;20524;-73
2023/01/11 05:59:29;;;;;;;11.02;4.82;;;;;;;1.97;100.00;98893.25;4451701;32;20184;-73
2023/01/11 06:01:58;;;;;;;12.55;4.72;;;;;;;2.05;100.00;98891.13;4450647;32;20517;-73
2023/01/11 06:04:26;;;;;;;11.32;4.95;;;;;;;1.89;100.00;98894.50;4453239;32;20100;-73
2023/01/11 06:06:54;;;;;;;8.95;4.72;;;;;;;1.91;100.00;98891.84;4453651;32;20089;-73
2023/01/11 06:09:21;;;;;;;8.98;4.90;;;;;;;1.83;100.00;98879.31;4453150;32;20109;-73
2023/01/11 06:11:49;;;;;;;9.20;4.70;;;;;;;1.80;100.00;98876.06;4453216;32;20100;-73
2023/01/11 06:14:16;;;;;;;11.12;4.40;;;;;;;1.76;100.00;98883.13;4451590;32;20097;-73
2023/01/11 06:16:43;;;;;;;10.00;5.05;;;;;;;1.75;100.00;98877.12;4450210;32;20119;-73
2023/01/11 06:19:11;;;;;;;8.75;4.18;;;;;;;1.77;100.00;98875.31;4449767;32;20128;-73
2023/01/11 06:21:38;;;;;;;9.85;4.93;;;;;;;1.76;100.00;98880.56;4453851;32;20097;-73
2023/01/11 06:24:06;;;;;;;8.30;4.12;;;;;;;1.88;100.00;98887.66;4451975;32;20113;-73
2023/01/11 06:26:33;;;;;;;7.55;4.15;;;;;;;1.83;100.00;98897.38;4449098;32;20675;-73
2023/01/11 06:29:00;;;;;;;10.45;4.97;;;;;;;1.86;100.00;98898.97;4446893;32;20123;-73
2023/01/11 06:31:27;;;;;;;11.45;5.20;;;;;;;1.88;100.00;98898.00;4448178;32;20267;-74
2023/01/11 06:33:54;;;;;;;10.02;4.35;;;;;;;1.91;100.00;98897.00;4452473;32;20105;-74
2023/01/11 06:36:21;;;;;;;10.48;5.12;;;;;;;1.90;100.00;98901.31;4453027;32;20109;-75
2023/01/11 06:38:48;;;;;;;9.38;4.65;;;;;;;1.92;100.00;98904.69;4452463;32;20085;-75
2023/01/11 06:41:16;;;;;;;12.98;5.22;;;;;;;1.88;100.00;98903.16;4452261;32;20105;-75
2023/01/11 06:43:43;;;;;;;11.68;5.72;;;;;;;1.88;100.00;98908.34;4453268;32;20113;-74
2023/01/11 06:46:12;;;;;;;9.55;4.80;;;;;;;1.99;100.00;98904.37;4454095;32;20465;-74
2023/01/11 06:48:40;;;;;;;10.75;4.95;;;;;;;1.96;100.00;98905.34;4448765;32;20529;-74
2023/01/11 06:51:09;;;;;;;10.13;4.55;;;;;;;1.91;100.00;98909.94;4451090;32;20080;-74
2023/01/11 06:53:37;;;;;;;14.15;5.22;;;;;;;1.99;100.00;98907.78;4451581;32;20172;-75
2023/01/11 06:56:05;;;;;;;12.93;4.72;;;;;;;1.90;100.00;98896.16;4452626;32;20153;-75
2023/01/11 06:58:32;;;;;;;8.70;4.65;;;;;;;2.07;100.00;98899.62;4452793;32;20480;-74
2023/01/11 07:01:00;;;;;;;11.70;4.90;;;;;;;2.11;100.00;98904.53;4445045;32;20143;-74
2023/01/11 07:03:27;;;;;;;12.15;5.37;;;;;;;2.18;100.00;98915.41;4447473;32;20464;-74
2023/01/11 07:05:55;;;;;;;11.52;4.65;;;;;;;2.17;100.00;98928.41;4450248;32;20122;-74
2023/01/11 07:08:24;;;;;;;13.32;4.75;;;;;;;2.28;100.00;98926.09;4451551;32;20116;-75
2023/01/11 07:10:52;;;;;;;10.20;4.93;;;;;;;2.27;100.00;98933.03;4445246;32;20096;-75
2023/01/11 07:13:21;;;;;;;9.82;4.00;;;;;;;2.22;100.00;98932.41;4449667;32;20146;-75
2023/01/11 07:15:51;;;;;;;12.88;5.37;;;;;;;2.25;100.00;98936.59;4447743;32;20101;-75
2023/01/11 07:18:18;;;;;;;8.75;4.40;;;;;;;2.29;100.00;98949.28;4451535;32;20104;-74
2023/01/11 07:20:46;;;;;;;11.93;4.37;;;;;;;2.38;100.00;98947.97;4452354;32;20108;-73
2023/01/11 07:23:13;;;;;;;7.45;3.90;;;;;;;2.44;100.00;98946.81;4448340;32;20101;-73
2023/01/11 07:25:40;;;;;;;9.07;4.15;;;;;;;2.51;100.00;98953.31;4439612;32;20096;-74
2023/01/11 07:28:08;;;;;;;10.55;5.18;;;;;;;2.55;100.00;98965.16;4452614;32;20160;-73
2023/01/11 07:30:37;;;;;;;10.85;4.20;;;;;;;2.61;100.00;98961.41;4451805;32;20553;-73
2023/01/11 07:33:23;;;;;;;9.30;3.97;;;;;;;2.89;100.00;98968.50;4447836;32;20128;-73
2023/01/11 07:35:50;;;;;;;12.05;5.37;;;;;;;2.78;100.00;98971.69;4450761;32;20100;-73
2023/01/11 07:38:17;;;;;;;10.40;4.75;;;;;;;2.85;100.00;98972.19;4442526;32;20493;-72
2023/01/11 07:40:44;;;;;;;11.50;4.32;;;;;;;2.93;100.00;98976.97;4440872;32;20110;-73
2023/01/11 07:43:18;;;;;;;11.02;4.65;;;;;;;2.81;100.00;98974.09;4448318;32;20093;-73
2023/01/11 07:45:48;;;;;;;8.15;4.40;;;;;;;2.83;100.00;98976.59;4448403;32;20144;-73
2023/01/11 07:48:25;;;;;;;8.30;4.32;;;;;;;2.96;100.00;98974.19;4436026;32;20453;-74
2023/01/11 07:50:53;;;;;;;13.88;4.25;;;;;;;2.99;100.00;98979.22;4451143;32;20154;-72
2023/01/11 07:53:21;;;;;;;8.32;3.78;;;;;;;3.02;100.00;98972.09;4447440;32;20093;-74
2023/01/11 07:55:48;;;;;;;9.05;4.78;;;;;;;3.00;100.00;98973.94;4451910;32;20563;-74
2023/01/11 07:58:15;;;;;;;9.35;4.55;;;;;;;3.14;100.00;98973.19;4449511;32;20109;-74
2023/01/11 08:00:45;;;;;;;7.50;3.87;;;;;;;3.21;100.00;98960.75;4449963;32;20382;-73
2023/01/11 08:03:13;;;;;;;7.90;4.40;;;;;;;3.25;100.00;98959.63;4446435;32;20202;-72
2023/01/11 08:05:40;;;;;;;8.45;4.00;;;;;;;3.29;100.00;98974.09;4451729;32;20119;-73
2023/01/11 08:08:07;;;;;;;10.55;5.37;;;;;;;3.19;100.00;98975.50;4437011;32;20117;-72
2023/01/11 08:10:35;;;;;;;8.77;4.53;;;;;;;3.17;100.00;98982.53;4445083;32;20220;-74
2023/01/11 08:15:48;;;;;;;11.68;4.50;;;;;;;3.36;100.00;98995.28;4442573;32;20163;-73
2023/01/11 08:18:16;;;;;;;11.30;4.47;;;;;;;3.46;100.00;98991.25;4448277;32;20101;-73
2023/01/11 08:20:44;;;;;;;9.13;4.20;;;;;;;3.49;100.00;99003.22;4449001;32;20081;-72
2023/01/11 08:23:11;;;;;;;9.73;4.70;;;;;;;3.67;100.00;99007.34;4449206;32;20536;-71
2023/01/11 08:25:38;;;;;;;10.88;4.40;;;;;;;3.78;100.00;99000.72;4447571;32;20101;-74
2023/01/11 08:28:06;;;;;;;9.70;4.43;;;;;;;3.86;100.00;98995.91;4445329;32;20124;-74
2023/01/11 08:30:35;;;;;;;9.05;3.97;;;;;;;3.79;100.00;99002.41;4447639;32;20488;-75
2023/01/11 08:33:03;;;;;;;10.65;3.85;;;;;;;3.88;100.00;98999.25;4447282;32;20132;-73
2023/01/11 08:35:36;;;;;;;8.80;3.70;;;;;;;3.97;100.00;99009.09;4442280;32;20126;-73
2023/01/11 08:38:05;;;;;;;8.45;4.35;;;;;;;4.01;100.00;98999.38;4448920;32;20581;-74
2023/01/11 08:40:32;;;;;;;8.02;4.00;;;;;;;4.17;100.00;99000.13;4449432;32;20109;-74
2023/01/11 08:42:59;;;;;;;12.20;3.80;;;;;;;4.31;100.00;98994.13;4447236;32;20097;-73
2023/01/11 08:45:27;;;;;;;7.55;3.70;;;;;;;4.44;100.00;98996.84;4450025;32;20493;-75
2023/01/11 08:47:54;;;;;;;8.02;3.65;;;;;;;4.62;100.00;99003.50;4451149;32;20093;-75
2023/01/11 08:50:21;;;;;;;7.35;3.78;;;;;;;4.64;100.00;99000.81;4450892;32;20125;-77
2023/01/11 08:52:49;;;;;;;8.93;3.87;;;;;;;4.60;100.00;98996.72;4451108;32;20178;-74
2023/01/11 08:55:18;;;;;;;7.22;3.25;;;;;;;4.68;100.00;98999.69;4450500;32;20093;-75
2023/01/11 08:57:46;;;;;;;8.85;4.18;;;;;;;4.77;100.00;99004.31;4432573;32;20159;-75
2023/01/11 09:00:14;;;;;;;8.65;3.72;;;;;;;4.92;100.00;99007.72;4447756;32;20092;-74
2023/01/11 09:02:44;;;;;;;8.73;3.67;;;;;;;4.96;100.00;99003.16;4446786;32;20530;-74
2023/01/11 09:05:11;;;;;;;10.20;3.50;;;;;;;4.92;100.00;99007.72;4446525;32;20166;-74
2023/01/11 09:07:39;;;;;;;8.48;4.20;;;;;;;4.91;100.00;99007.81;4448033;32;20130;-74
2023/01/11 09:10:06;;;;;;;10.70;3.70;;;;;;;5.08;100.00;99020.56;4430881;32;20089;-75
2023/01/11 09:12:33;;;;;;;8.77;4.07;;;;;;;5.18;100.00;99022.59;4448882;32;20727;-73
2023/01/11 09:15:04;;;;;;;7.62;3.62;;;;;;;5.20;100.00;99031.13;4447609;32;20579;-73
2023/01/11 09:17:33;;;;;;;8.23;3.58;;;;;;;5.32;100.00;99020.78;4450182;32;20097;-73
2023/01/11 09:20:00;;;;;;;6.80;3.70;;;;;;;5.35;100.00;99034.53;4451629;32;20246;-72
2023/01/11 09:22:27;;;;;;;6.15;3.28;;;;;;;5.42;100.00;99030.59;4448563;32;20158;-73
2023/01/11 09:24:57;;;;;;;6.87;3.60;;;;;;;5.37;100.00;99027.47;4452457;32;20140;-72
2023/01/11 09:27:25;;;;;;;9.18;4.07;;;;;;;5.30;100.00;99019.25;4452805;32;20159;-72
2023/01/11 09:29:53;;;;;;;5.75;3.70;;;;;;;5.54;100.00;99026.37;4450373;32;20154;-74
2023/01/11 09:32:20;;;;;;;8.15;4.18;;;;;;;5.45;100.00;99025.19;4449499;32;20158;-73
2023/01/11 09:34:48;;;;;;;6.95;4.30;;;;;;;5.44;100.00;99024.38;4451227;32;20148;-74
2023/01/11 09:37:16;;;;;;;10.48;4.10;;;;;;;5.45;100.00;99018.25;4450399;32;20132;-71
2023/01/11 09:39:43;;;;;;;7.95;4.15;;;;;;;5.41;100.00;99014.19;4449537;32;20225;-73
2023/01/11 09:42:30;;;;;;;14.32;4.60;;;;;;;5.44;100.00;99013.97;4447666;32;20127;-73
2023/01/11 09:45:20;;;;;;;10.10;4.20;;;;;;;5.67;100.00;99009.06;4445851;32;20175;-74
2023/01/11 09:48:16;;;;;;;14.73;4.70;;;;;;;5.73;100.00;99016.47;4432334;32;20104;-73
2023/01/11 09:50:46;;;;;;;12.63;4.70;;;;;;;5.64;100.00;99017.87;4432132;32;20131;-73
2023/01/11 09:53:33;;;;;;;10.35;5.10;;;;;;;5.63;100.00;99018.84;4444766;32;20093;-71
2023/01/11 09:56:04;;;;;;;10.77;4.80;;;;;;;5.72;100.00;99017.37;4441797;32;20189;-73
2023/01/11 09:58:52;;;;;;;13.27;4.68;;;;;;;5.71;100.00;99015.75;4447454;32;20100;-72
2023/01/11 10:01:34;;;;;;;13.45;4.70;;;;;;;5.67;100.00;99009.87;4433872;32;20276;-71
2023/01/11 10:04:25;;;;;;;8.18;4.65;;;;;;;5.75;100.00;99001.59;4433242;32;20142;-72
2023/01/11 10:07:24;;;;;;;9.68;4.90;;;;;;;5.76;100.00;98998.06;4448851;32;20960;-73
2023/01/11 10:10:11;;;;;;;12.32;4.53;;;;;;;5.66;100.00;99002.19;4448712;32;20101;-75
2023/01/11 10:13:23;;;;;;;9.43;4.75;;;;;;;5.54;100.00;98987.41;4448525;32;20104;-75
2023/01/11 10:16:23;;;;;;;11.77;5.47;;;;;;;5.66;100.00;98981.41;4442373;32;20203;-76
2023/01/11 10:19:17;;;;;;;7.57;4.28;;;;;;;6.02;100.00;98985.13;4449909;32;20089;-76
2023/01/11 10:22:10;;;;;;;12.20;4.80;;;;;;;5.95;100.00;98987.28;4444061;32;20654;-75
2023/01/11 10:25:32;;;;;;;14.10;5.35;;;;;;;5.77;100.00;98975.50;4437013;32;20127;-72
2023/01/11 10:28:05;;;;;;;13.57;6.00;;;;;;;5.77;100.00;98980.69;4437363;32;28502;-72
2023/01/11 10:33:33;;;;;;;8.88;5.10;;;;;;;5.92;100.00;98971.03;4435463;32;20442;-72
2023/01/11 10:42:04;;;;;;;11.95;5.85;;;;;;;6.15;100.00;98977.34;4449865;32;20466;-75
2023/01/11 10:44:37;;;;;;;10.35;5.28;;;;;;;6.21;100.00;98982.13;4451030;32;20109;-74
2023/01/11 10:47:12;;;;;;;12.02;5.53;;;;;;;6.16;100.00;98982.44;4436001;32;20137;-73
2023/01/11 10:50:00;;;;;;;12.95;5.93;;;;;;;6.08;100.00;98984.72;4434913;32;20166;-74
2023/01/11 10:52:35;;;;;;;14.25;6.03;;;;;;;6.20;100.00;98989.09;4434812;32;20142;-74
2023/01/11 10:55:14;;;;;;;9.48;4.80;;;;;;;6.13;100.00;98985.25;4434799;32;20120;-74
2023/01/11 10:57:54;;;;;;;13.48;5.45;;;;;;;6.15;100.00;98967.78;4448174;32;20120;-74
2023/01/11 11:01:19;;;;;;;11.52;4.82;;;;;;;6.30;100.00;98967.66;4449272;32;20200;-73
2023/01/11 11:04:19;;;;;;;9.05;4.53;;;;;;;6.67;100.00;98963.34;4372566;32;20169;-73
2023/01/11 11:07:16;;;;;;;8.35;4.32;;;;;;;6.64;100.00;98962.72;4316473;33;20149;-72
2023/01/11 11:10:18;;;;;;;11.27;5.00;;;;;;;6.82;100.00;98966.63;4316882;33;20103;-73
2023/01/11 11:13:13;;;;;;;8.98;4.20;;;;;;;6.82;100.00;98969.25;4301004;33;20406;-73
2023/01/11 11:15:49;;;;;;;9.98;4.53;;;;;;;6.92;100.00;98966.84;4283694;33;20084;-72
2023/01/11 11:18:17;;;;;;;8.75;4.75;;;;;;;6.86;100.00;98968.09;4283906;33;20279;-73
2023/01/11 11:20:45;;;;;;;7.78;4.70;;;;;;;6.87;100.00;98959.34;4287830;33;20490;-73
2023/01/11 11:23:15;;;;;;;10.93;4.40;;;;;;;6.82;100.00;98960.59;4297347;33;20892;-71
2023/01/11 11:25:47;;;;;;;9.40;4.62;;;;;;;6.70;100.00;98944.06;4271216;33;20241;-72
2023/01/11 11:28:26;;;;;;;7.00;4.15;;;;;;;6.81;100.00;98940.69;4289150;33;20112;-71
2023/01/11 11:30:56;;;;;;;9.80;5.37;;;;;;;6.77;100.00;98937.50;4286485;33;20100;-72
2023/01/11 11:33:35;;;;;;;10.85;4.60;;;;;;;6.82;100.00;98930.19;4287194;33;20135;-74
2023/01/11 11:36:09;;;;;;;9.32;5.50;;;;;;;6.83;100.00;98931.84;4341630;32;20576;-75
2023/01/11 11:39:00;;;;;;;14.73;5.65;;;;;;;6.99;100.00;98933.34;4337418;32;20138;-75
2023/01/11 11:41:47;;;;;;;7.60;4.32;;;;;;;7.16;100.00;98934.72;4324679;33;20108;-73
2023/01/11 11:44:25;;;;;;;7.87;4.32;;;;;;;6.97;100.00;98943.88;4360047;32;20098;-73
2023/01/11 11:47:00;;;;;;;11.25;4.80;;;;;;;6.97;100.00;98941.28;4385910;32;20153;-74
2023/01/11 11:49:32;;;;;;;6.93;4.03;;;;;;;7.15;100.00;98946.94;4444294;32;20161;-74
2023/01/11 11:52:02;;;;;;;7.82;4.70;;;;;;;7.24;100.00;98945.44;4449257;32;20145;-74
2023/01/11 11:54:32;;;;;;;10.27;4.20;;;;;;;7.35;100.00;98949.87;4434129;32;20101;-74
2023/01/11 11:57:16;;;;;;;7.65;4.53;;;;;;;7.32;100.00;98947.50;4448730;32;20081;-74
2023/01/11 11:59:46;;;;;;;11.23;4.68;;;;;;;7.50;100.00;98940.09;4433773;32;20100;-73
2023/01/11 12:02:33;;;;;;;15.20;4.68;;;;;;;7.50;100.00;98935.72;4431308;32;20501;-72
2023/01/11 12:05:05;;;;;;;8.82;4.03;;;;;;;7.45;100.00;98937.84;4450894;32;20476;-72
2023/01/11 12:07:42;;;;;;;8.45;4.35;;;;;;;7.50;100.00;98945.31;4435321;32;20089;-72
2023/01/11 12:10:24;;;;;;;5.75;3.85;;;;;;;7.48;100.00;98948.03;4446472;32;20157;-72
2023/01/11 12:12:52;;;;;;;10.68;4.93;;;;;;;7.51;100.00;98953.03;4434108;32;20116;-71
2023/01/11 12:15:19;;;;;;;7.10;3.42;;;;;;;7.45;100.00;98943.06;4451565;32;20180;-71
2023/01/11 12:17:47;;;;;;;10.15;4.03;;;;;;;7.55;100.00;98943.19;4450449;32;20148;-70
2023/01/11 12:20:20;;;;;;;7.57;3.85;;;;;;;7.50;100.00;98942.72;4454073;32;20190;-70